Latest Coastal Weather Observations for Hindmarsh Island

IDS60701

Issued at 7:55 am CST Thursday 24 July 2014 (issued every 10 minutes, with the page automatically refreshed every 10 minutes)

About coastal observations | Map of coastal stations | Coastal observations for SA | Marine services | Other Formats
Station Details ID: 023894 Name: HINDMARSH ISLAND AWS Lat: -35.52 Lon: 138.82 Height: 11.0 m
Data from the previous 72 hours. | See also: Recent months at Hindmarsh Island
Date/Time
CST
Temp

°C
Wind Pressure Rain
since 9am
mm
Weather Cloud Vis
km
Sea
Height
m
Swell
Dir
 
Speed
knots
Gust
knots
hPa Trend Height
m
Period
s
Dir
24/07:30am 9.3 NNE 13 17 1005.1 - 10.8 - - - - - - -
24/07:00am 9.2 NNE 12 16 1005.1 - 10.8 - - - - - - -
24/06:30am 9.5 NNE 13 19 1005.0 - 10.8 - - - - - - -
24/06:00am 9.4 NNE 16 20 1004.8 - 10.8 - - - - - - -
24/05:30am 9.6 NNE 14 18 1005.0 - 10.4 - - - - - - -
24/05:00am 9.6 NE 14 17 1005.1 - 9.8 - - - - - - -
24/04:30am 9.5 NE 13 19 1005.1 - 9.6 - - - - - - -
24/04:00am 9.5 NNE 14 19 1005.2 - 9.0 - - - - - - -
24/03:30am 9.3 NNE 11 14 1005.6 - 8.8 - - - - - - -
24/03:00am 9.1 NE 11 14 1006.0 - 8.8 - - - - - - -
24/02:30am 9.1 NE 11 14 1006.5 - 8.8 - - - - - - -
24/02:00am 9.2 NE 12 17 1006.9 - 8.8 - - - - - - -
24/01:30am 9.4 NE 13 17 1007.3 - 8.8 - - - - - - -
24/01:00am 9.3 NNE 10 15 1008.3 - 8.8 - - - - - - -
24/12:30am 9.1 NNE 11 14 1008.4 - 8.8 - - - - - - -
24/12:00am 9.0 NE 11 15 1009.1 - 8.8 - - - - - - -
 
Date/Time
CST
Temp

°C
Wind Pressure Rain
since 9am
mm
Weather Cloud Vis
km
Sea
Height
m
Swell
Dir
 
Speed
knots
Gust
knots
hPa Trend Height
m
Period
s
Dir
23/11:30pm 9.5 NE 19 25 1009.0 - 8.6 - - - - - - -
23/11:00pm 9.4 ENE 16 22 1010.1 - 8.6 - - - - - - -
23/10:30pm 9.5 NE 18 21 1010.9 - 8.6 - - - - - - -
23/10:00pm 9.5 NE 17 22 1011.2 - 8.6 - - - - - - -
23/09:30pm 9.4 NE 15 19 1012.1 - 8.2 - - - - - - -
23/09:00pm 9.1 NE 9 12 1012.5 - 8.2 - - - - - - -
23/08:30pm 9.1 NE 11 13 1012.7 - 7.6 - - - - - - -
23/08:00pm 9.0 NE 7 10 1013.1 - 6.4 - - - - - - -
23/07:30pm 9.3 N 5 8 1013.4 - 5.0 - - - - - - -
23/07:00pm 9.2 NE 9 11 1013.1 - 3.8 - - - - - - -
23/06:30pm 9.8 N 10 13 1013.4 - 1.8 - - - - - - -
23/06:00pm 9.7 N 9 12 1012.6 - 1.8 - - - - - - -
23/05:30pm 10.0 N 10 14 1012.5 - 1.8 - - - - - - -
23/05:00pm 10.0 NE 11 14 1012.5 - 1.8 - - - - - - -
23/04:30pm 10.1 NE 15 19 1012.5 - 1.8 - - - - - - -
23/04:00pm 10.0 NE 14 17 1012.4 - 1.8 - - - - - - -
23/03:30pm 9.8 NE 16 20 1013.0 - 1.8 - - - - - - -
23/03:00pm 9.4 ENE 16 19 1012.5 - 1.6 - - - - - - -
23/02:30pm 10.1 NE 9 10 1014.0 - 1.0 - - - - - - -
23/02:00pm 10.5 NNE 8 10 1014.4 - 0.2 - - - - - - -
23/01:30pm 11.2 NNE 12 15 1014.3 - 0.0 - - - - - - -
23/01:00pm 11.2 NNE 14 18 1014.6 - 0.0 - - - - - - -
23/12:30pm 11.4 NE 16 19 1015.2 - 0.0 - - - - - - -
23/12:00pm 11.2 NNE 15 19 1016.2 - 0.0 - - - - - - -
23/11:30am 11.0 NNE 15 19 1016.7 - 0.0 - - - - - - -
23/11:00am 10.0 NE 16 20 1017.3 - 0.0 - - - - - - -
23/10:30am 9.5 NNE 15 19 1017.9 - 0.0 - - - - - - -
23/10:00am 9.1 NE 15 22 1018.0 - 0.0 - - - - - - -
23/09:30am 9.4 NNE 16 20 1018.1 - 0.0 - - - - - - -
23/09:00am 7.8 NNE 14 19 1018.2 - 0.0 Haze Mostly cloudy 8 - - - -
23/08:30am 7.5 NNE 16 20 1018.2 - 0.0 - - - - - - -
23/08:00am 7.5 NE 17 21 1018.3 - 0.0 - - - - - - -
23/07:30am 7.4 NE 16 20 1018.4 - 0.0 - - - - - - -
23/07:00am 7.4 NE 17 22 1018.5 - 0.0 - - - - - - -
23/06:30am 7.5 NE 15 18 1018.5 - 0.0 - - - - - - -
23/06:00am 7.8 NE 15 18 1018.5 - 0.0 - - - - - - -
23/05:30am 8.0 NE 15 18 1018.4 - 0.0 - - - - - - -
23/05:00am 8.1 NE 15 19 1018.5 - 0.0 - - - - - - -
23/04:30am 8.4 NE 16 21 1018.7 - 0.0 - - - - - - -
23/04:00am 8.5 NE 16 19 1018.9 - 0.0 - - - - - - -
23/03:30am 8.5 NE 15 18 1019.2 - 0.0 - - - - - - -
23/03:00am 8.6 NE 15 18 1019.3 - 0.0 - - - - - - -
23/02:30am 8.7 NE 15 18 1019.8 - 0.0 - - - - - - -
23/02:00am 8.9 NE 15 17 1020.0 - 0.0 - - - - - - -
23/01:30am 9.0 NE 12 16 1020.0 - 0.0 - - - - - - -
23/01:00am 8.8 NE 12 15 1020.1 - 0.0 - - - - - - -
23/12:30am 8.7 NE 13 16 1020.5 - 0.0 - - - - - - -
23/12:00am 8.4 NE 12 14 1020.7 - 0.0 - - - - - - -
 
Date/Time
CST
Temp

°C
Wind Pressure Rain
since 9am
mm
Weather Cloud Vis
km
Sea
Height
m
Swell
Dir
 
Speed
knots
Gust
knots
hPa Trend Height
m
Period
s
Dir
22/11:30pm 8.3 NE 11 13 1021.1 - 0.0 - - - - - - -
22/11:00pm 8.0 NE 9 11 1021.1 - 0.0 - - - - - - -
22/10:30pm 8.6 NNE 10 11 1021.2 - 0.0 - - - - - - -
22/10:00pm 9.1 NNE 10 12 1021.3 - 0.0 - - - - - - -
22/09:30pm 9.5 NNE 10 12 1021.6 - 0.0 - - - - - - -
22/09:00pm 10.0 NNE 11 13 1021.6 - 0.0 - - - - - - -
22/08:30pm 9.6 NNE 10 12 1021.5 - 0.0 - - - - - - -
22/08:00pm 10.0 NNE 9 11 1021.6 - 0.0 - - - - - - -
22/07:30pm 10.2 NNE 8 10 1021.7 - 0.0 - - - - - - -
22/07:00pm 10.9 NNE 9 11 1021.6 - 0.0 - - - - - - -
22/06:30pm 10.9 NE 10 12 1021.3 - 0.0 - - - - - - -
22/06:00pm 10.6 NE 9 11 1021.4 - 0.0 - - - - - - -
22/05:30pm 11.7 NE 9 11 1021.3 - 0.0 - - - - - - -
22/05:00pm 13.4 ENE 9 12 1020.7 - 0.0 - - - - - - -
22/04:30pm 15.0 ENE 10 13 1020.7 - 0.0 - - - - - - -
22/04:00pm 15.8 ENE 10 14 1021.0 - 0.0 - - - - - - -
22/03:30pm 16.1 ENE 13 14 1021.1 - 0.0 - - - - - - -
22/03:00pm 16.3 ENE 13 15 1021.1 - 0.0 - - - - - - -
22/02:30pm 16.2 ENE 12 14 1021.2 - 0.0 - - - - - - -
22/02:00pm 16.0 E 9 11 1021.5 - 0.0 - - - - - - -
22/01:30pm 15.7 NE 8 12 1021.7 - 0.0 - - - - - - -
22/01:00pm 14.7 NE 9 11 1022.0 - 0.0 - - - - - - -
22/12:30pm 14.4 NNE 8 10 1022.6 - 0.0 - - - - - - -
22/12:00pm 13.2 NNE 10 12 1023.1 - 0.0 - - - - - - -
22/11:30am 12.5 NNE 8 11 1023.7 - 0.0 - - - - - - -
22/11:00am 11.8 NNE 8 10 1024.1 - 0.0 - - - - - - -
22/10:30am 10.8 NNE 8 11 1024.3 - 0.0 - - - - - - -
22/10:00am 9.7 NNE 7 9 1024.5 - 0.0 - - - - - - -
22/09:30am 8.1 NNE 6 7 1024.6 - 0.0 - - - - - - -
22/09:00am 7.0 ENE 5 7 1024.5 - 0.0 Fine Mostly clear 10 - - - -
22/08:30am 6.4 NE 5 7 1024.3 - 0.0 - - - - - - -
22/08:00am 5.3 ENE 3 5 1024.1 - 0.0 - - - - - - -
22/07:30am 5.1 NE 5 7 1024.1 - 0.0 - - - - - - -
22/07:00am 5.6 NNE 2 5 1023.8 - 0.0 - - - - - - -
22/06:30am 5.8 NE 5 8 1023.4 - 0.0 - - - - - - -
22/06:00am 5.2 NNE 7 9 1023.1 - 0.0 - - - - - - -
22/05:30am 5.3 NNE 4 6 1023.1 - 0.0 - - - - - - -
22/05:00am 5.3 NNE 5 7 1023.0 - 0.0 - - - - - - -
22/04:30am 5.5 NNE 2 6 1023.0 - 0.0 - - - - - - -
22/04:00am 5.8 N 9 10 1022.7 - 0.0 - - - - - - -
22/03:30am 6.1 N 9 11 1022.7 - 0.0 - - - - - - -
22/03:00am 6.0 NNE 9 11 1022.8 - 0.0 - - - - - - -
22/02:30am 5.5 NNE 6 8 1022.8 - 0.0 - - - - - - -
22/02:00am 5.7 NE 2 4 1022.9 - 0.0 - - - - - - -
22/01:30am 6.6 N 7 8 1022.9 - 0.0 - - - - - - -
22/01:00am 6.7 N 7 8 1022.9 - 0.0 - - - - - - -
22/12:30am 6.8 N 5 6 1023.0 - 0.0 - - - - - - -
22/12:00am 7.4 N 7 8 1023.1 - 0.0 - - - - - - -
 
Date/Time
CST
Temp

°C
Wind Pressure Rain
since 9am
mm
Weather Cloud Vis
km
Sea
Height
m
Swell
Dir
 
Speed
knots
Gust
knots
hPa Trend Height
m
Period
s
Dir
21/11:30pm 7.7 N 6 8 1023.1 - 0.0 - - - - - - -
21/11:00pm 8.0 NNE 7 9 1023.0 - 0.0 - - - - - - -
21/10:30pm 7.6 NE 8 9 1023.1 - 0.0 - - - - - - -
21/10:00pm 7.4 NE 6 8 1023.1 - 0.0 - - - - - - -
21/09:30pm 7.4 ENE 5 6 1023.0 - 0.0 - - - - - - -
21/09:00pm 8.8 NNE 4 5 1022.8 - 0.0 - - - - - - -
21/08:30pm 9.6 NNE 2 4 1022.7 - 0.0 - - - - - - -
21/08:00pm 9.8 NNE 4 5 1022.6 - 0.0 - - - - - - -
21/07:30pm 10.0 NE 5 6 1022.4 - 0.0 - - - - - - -
21/07:00pm 10.3 ENE 4 4 1022.2 - 0.0 - - - - - - -
21/06:30pm 11.0 E 1 3 1022.1 - 0.0 - - - - - - -
21/06:00pm 10.8 E 4 4 1022.0 - 0.0 - - - - - - -
21/05:30pm 11.1 E 5 6 1021.7 - 0.0 - - - - - - -
21/05:00pm 11.5 ENE 5 6 1021.3 - 0.0 - - - - - - -
21/04:30pm 12.9 ENE 9 12 1021.0 - 0.0 - - - - - - -
21/04:00pm 14.0 NE 11 14 1020.8 - 0.0 - - - - - - -
21/03:30pm 14.6 ENE 10 12 1020.7 - 0.0 - - - - - - -
21/03:00pm 14.5 E 9 11 1020.6 - 0.0 - - - - - - -
21/02:30pm 14.4 ENE 8 10 1020.7 - 0.0 - - - - - - -
21/02:00pm 14.9 E 5 7 1020.8 - 0.0 - - - - - - -
21/01:30pm 13.8 NNE 5 6 1021.1 - 0.0 - - - - - - -
21/01:00pm 13.5 NE 7 9 1021.4 - 0.0 - - - - - - -
21/12:30pm 13.3 NE 8 11 1021.8 - 0.0 - - - - - - -
21/12:00pm 11.8 NE 8 11 1022.3 - 0.0 - - - - - - -
21/11:30am 11.1 NNE 9 11 1022.6 - 0.0 - - - - - - -
21/11:00am 10.5 NNE 11 13 1022.9 - 0.0 - - - - - - -
21/10:30am 9.4 NNE 10 14 1023.0 - 0.0 - - - - - - -
21/10:00am 8.5 NNE 9 12 1023.0 - 0.0 - - - - - - -
21/09:30am 7.8 NNE 12 15 1023.0 - 0.0 - - - - - - -
21/09:00am 7.5 NNE 11 15 1023.0 - 0.0 Haze Cloudy 8 - - - -
21/08:30am 7.2 NE 11 13 1022.9 - 0.0 - - - - - - -
21/08:00am 6.7 NE 11 13 1022.8 - 0.0 - - - - - - -

Other Formats:

Comma delimited format used in spreadsheet applications
http://www.bom.gov.au/fwo/IDS60701/IDS60701.94677.axf

JavaScript Object Notation format (JSON) in row-major order
http://www.bom.gov.au/fwo/IDS60701/IDS60701.94677.json